Huvudsida
METAR-TAF:

METAR-TAF

Flygplatser :

Al Najafflygplats

Najaf, Irak

latitud: 31-59-23N, longitud: 44-24-15E, höjd: 31 m

Aktuellt väderrapport

Denna rapport gjordes för 50 minuter sedan, klockan 14:00 UTC
Vind 11 kt från nord
Temperatur 48°C
Fuktighet 6%
Tryck 1001 hPa
Sikt 10 km eller mer
Inga moln under 1 500 m eller inga cumulonimbus

METAR: ORNI 261400Z 36011KT CAVOK 48/02 Q1001 NOSIG

Tid: 17:50 (14:50 UTC)

Väderprognos

Denna rapport gjordes för 4 timmar och 50 minuter sedan, klockan 10:00 UTC
Prognos gäller från 25 kl. 12 UTC till 27 kl. 12 UTC
Vind 10 kt från nordväst
Sikt: 8000 m

TAF: ORNI 261000Z 2512/2712 32010KT 8000 NSC

Aktuella väderrapporter och prognoser från 4000 flygplatser (METAR- och TAF-rapporter).

De tillgängliga stationerna syns som gula och röda prickar på kartan.

För musen över prickarna för att se namnen på stationerna.

Klicka sedan för att få väderrapporter och prognoser.

För att ändra kartan: Klicka på de gröna knapparna med ett svart kors på för att zooma in; den gröna knappen med ett streck på för att zooma ut; eller på de gröna pilarna för angränsande kartor.


METAR-TAF: